createdAt,value
2023-05-01T00:00:13.282Z,2.80
2023-05-01T00:02:41.269Z,2.90
2023-05-01T00:05:09.849Z,2.73
2023-05-01T00:07:39.162Z,2.73
2023-05-01T00:10:07.548Z,2.53
2023-05-01T00:12:35.459Z,2.57
2023-05-01T00:15:03.394Z,2.70
2023-05-01T00:17:31.516Z,2.70
2023-05-01T00:19:59.801Z,2.53
2023-05-01T00:22:27.821Z,3.23
2023-05-01T00:24:57.178Z,2.63
2023-05-01T00:27:25.233Z,2.80
2023-05-01T00:29:53.176Z,2.80
2023-05-01T00:32:21.172Z,3.10
2023-05-01T00:34:49.523Z,3.10
2023-05-01T00:37:17.614Z,3.03
2023-05-01T00:39:45.511Z,3.00
2023-05-01T00:42:14.813Z,3.30
2023-05-01T00:44:42.732Z,2.97
2023-05-01T00:47:10.782Z,2.87
2023-05-01T00:49:38.679Z,3.10
2023-05-01T00:52:06.670Z,3.10
2023-05-01T00:54:34.575Z,3.13
2023-05-01T00:57:02.708Z,2.70
2023-05-01T00:59:32.097Z,3.40
2023-05-01T01:02:00.001Z,3.13
2023-05-01T01:04:31.700Z,2.70
2023-05-01T01:07:04.039Z,2.90
2023-05-01T01:09:36.507Z,3.10
2023-05-01T01:12:08.021Z,2.90
2023-05-01T01:14:41.668Z,2.70
2023-05-01T01:17:19.034Z,3.37
2023-05-01T01:20:01.798Z,2.90
2023-05-01T01:22:30.543Z,3.10
2023-05-01T01:25:12.783Z,2.63
2023-05-01T01:27:56.039Z,3.10
2023-05-01T01:30:41.875Z,2.87
2023-05-01T01:33:19.697Z,3.53
2023-05-01T01:35:53.712Z,2.93
2023-05-01T01:38:23.925Z,3.10
2023-05-01T01:40:55.156Z,2.90
2023-05-01T01:43:24.613Z,3.50
2023-05-01T01:45:55.266Z,3.00
2023-05-01T01:48:24.018Z,2.97
2023-05-01T01:50:54.353Z,3.00
2023-05-01T01:53:23.019Z,3.13
2023-05-01T01:55:51.534Z,4.00
2023-05-01T01:58:25.072Z,2.77
2023-05-01T02:00:54.007Z,2.90
2023-05-01T02:03:23.197Z,2.80
2023-05-01T02:05:51.751Z,2.80
2023-05-01T02:08:21.359Z,3.30
2023-05-01T02:10:49.509Z,3.47
2023-05-01T02:13:18.631Z,3.20
2023-05-01T02:15:47.209Z,3.13
2023-05-01T02:18:16.068Z,3.10
2023-05-01T02:20:44.222Z,3.00
2023-05-01T02:23:12.422Z,3.33
2023-05-01T02:25:42.371Z,2.87
2023-05-01T02:28:13.616Z,3.00
2023-05-01T02:30:41.513Z,3.00
2023-05-01T02:33:09.939Z,2.90
2023-05-01T02:35:41.882Z,3.00
2023-05-01T02:38:09.843Z,3.43
2023-05-01T02:40:38.091Z,3.10
2023-05-01T02:43:10.442Z,2.90
2023-05-01T02:45:39.917Z,3.20
2023-05-01T02:48:09.297Z,3.17
2023-05-01T02:50:40.749Z,3.17
2023-05-01T02:53:08.940Z,3.33
2023-05-01T02:55:36.993Z,3.70
2023-05-01T02:58:04.875Z,3.40
2023-05-01T03:00:34.654Z,4.03
2023-05-01T03:03:02.581Z,4.40
2023-05-01T03:05:30.573Z,3.70
2023-05-01T03:07:58.475Z,4.10
2023-05-01T03:10:26.670Z,3.20
2023-05-01T03:12:54.540Z,3.17
2023-05-01T03:15:22.402Z,3.80
2023-05-01T03:17:51.957Z,3.40
2023-05-01T03:20:19.972Z,3.33
2023-05-01T03:22:47.888Z,3.70
2023-05-01T03:25:15.870Z,3.60
2023-05-01T03:27:43.805Z,3.63
2023-05-01T03:30:12.105Z,4.53
2023-05-01T03:32:40.146Z,4.47
2023-05-01T03:35:10.893Z,4.17
2023-05-01T03:37:38.864Z,3.93
2023-05-01T03:40:07.312Z,3.90
2023-05-01T03:42:35.196Z,3.90
2023-05-01T03:45:03.185Z,3.83
2023-05-01T03:47:31.460Z,3.80
2023-05-01T03:49:59.446Z,3.40
2023-05-01T03:52:28.798Z,3.10
2023-05-01T03:54:57.319Z,3.93
2023-05-01T03:57:25.212Z,3.60
2023-05-01T03:59:55.197Z,3.43
2023-05-01T04:02:23.402Z,3.33
2023-05-01T04:04:51.376Z,3.20
2023-05-01T04:07:19.540Z,3.73
2023-05-01T04:09:49.590Z,3.47
2023-05-01T04:12:17.443Z,3.27
2023-05-01T04:14:45.791Z,3.50
2023-05-01T04:17:13.664Z,3.07
2023-05-01T04:19:41.720Z,3.83
2023-05-01T04:22:09.790Z,2.87
2023-05-01T04:24:37.918Z,3.20
2023-05-01T04:27:07.180Z,3.40
2023-05-01T04:29:35.129Z,3.50
2023-05-01T04:32:03.154Z,3.30
2023-05-01T04:34:31.180Z,3.67
2023-05-01T04:36:59.110Z,3.47
2023-05-01T04:39:27.052Z,3.30
2023-05-01T04:41:54.898Z,3.43
2023-05-01T04:44:24.243Z,3.77
2023-05-01T04:46:52.169Z,3.57
2023-05-01T04:49:20.076Z,3.50
2023-05-01T04:51:48.024Z,3.20
2023-05-01T04:54:15.942Z,3.30
2023-05-01T04:56:43.852Z,3.30
2023-05-01T04:59:11.758Z,3.50
2023-05-01T05:01:41.166Z,3.87
2023-05-01T05:04:09.235Z,3.60
2023-05-01T05:06:37.276Z,3.50
2023-05-01T05:09:05.374Z,3.23
2023-05-01T05:11:33.249Z,3.73
2023-05-01T05:14:01.116Z,3.43
2023-05-01T05:16:29.084Z,3.40
2023-05-01T05:18:58.781Z,3.60
2023-05-01T05:21:26.676Z,3.53
2023-05-01T05:23:54.611Z,3.67
2023-05-01T05:26:22.519Z,3.17
2023-05-01T05:28:51.445Z,3.80
2023-05-01T05:31:19.333Z,3.47
2023-05-01T05:33:47.292Z,3.20
2023-05-01T05:36:16.674Z,3.93
2023-05-01T05:38:44.725Z,3.37
2023-05-01T05:41:12.797Z,3.93
2023-05-01T05:43:40.689Z,3.80
2023-05-01T05:46:08.727Z,3.50
2023-05-01T05:48:36.642Z,3.57
2023-05-01T05:51:04.649Z,3.60
2023-05-01T05:53:37.030Z,3.40
2023-05-01T05:56:04.994Z,4.00
2023-05-01T05:58:32.997Z,3.27
2023-05-01T06:01:00.897Z,3.43
2023-05-01T06:03:28.899Z,3.70
2023-05-01T06:05:57.058Z,3.63
2023-05-01T06:08:25.057Z,3.60
2023-05-01T06:10:54.344Z,3.70
2023-05-01T06:13:23.027Z,3.67
2023-05-01T06:15:50.969Z,3.53
2023-05-01T06:18:18.965Z,3.90
2023-05-01T06:20:47.474Z,3.93
2023-05-01T06:23:15.663Z,4.40
2023-05-01T06:25:44.440Z,3.97
2023-05-01T06:28:13.748Z,3.43
2023-05-01T06:30:41.649Z,4.40
2023-05-01T06:33:10.042Z,3.83
2023-05-01T06:35:39.907Z,4.30
2023-05-01T06:38:08.753Z,4.10
2023-05-01T06:40:37.331Z,3.93
2023-05-01T06:43:05.579Z,3.80
2023-05-01T06:45:34.956Z,4.07
2023-05-01T06:48:02.961Z,3.93
2023-05-01T06:50:30.895Z,3.63
2023-05-01T06:53:01.102Z,4.13
2023-05-01T06:55:32.093Z,4.00
2023-05-01T06:58:04.877Z,3.97
2023-05-01T07:00:42.386Z,3.47
2023-05-01T07:03:12.499Z,3.30
2023-05-01T07:05:41.520Z,3.50
2023-05-01T07:08:09.848Z,3.63
2023-05-01T07:10:39.320Z,3.73
2023-05-01T07:13:09.358Z,3.37
2023-05-01T07:15:37.305Z,3.17
2023-05-01T07:18:07.187Z,3.80
2023-05-01T07:20:35.801Z,4.10
2023-05-01T07:23:05.910Z,3.60
2023-05-01T07:25:35.188Z,3.70
2023-05-01T07:28:04.720Z,3.30
2023-05-01T07:30:33.579Z,3.60
2023-05-01T07:33:02.080Z,3.77
2023-05-01T07:35:36.851Z,3.07
2023-05-01T07:38:12.359Z,3.20
2023-05-01T07:40:40.315Z,3.30
2023-05-01T07:43:11.325Z,3.30
2023-05-01T07:45:39.483Z,3.37
2023-05-01T07:48:07.829Z,3.20
2023-05-01T07:50:37.231Z,3.03
2023-05-01T07:53:05.116Z,3.20
2023-05-01T07:55:33.046Z,3.27
2023-05-01T07:58:00.989Z,2.77
2023-05-01T08:00:28.945Z,2.57
2023-05-01T08:02:56.891Z,3.00
2023-05-01T08:05:24.949Z,3.20
2023-05-01T08:07:54.314Z,2.97
2023-05-01T08:10:22.235Z,2.80
2023-05-01T08:12:50.130Z,3.27
2023-05-01T08:15:18.059Z,3.30
2023-05-01T08:17:47.422Z,3.00
2023-05-01T08:20:15.431Z,3.00
2023-05-01T08:22:43.339Z,2.93
2023-05-01T08:25:12.630Z,2.90
2023-05-01T08:27:40.572Z,2.90
2023-05-01T08:30:09.177Z,2.90
2023-05-01T08:32:37.097Z,2.60
2023-05-01T08:35:05.176Z,2.50
2023-05-01T08:37:33.122Z,2.90
2023-05-01T08:40:01.147Z,2.27
2023-05-01T08:42:32.275Z,3.07
2023-05-01T08:45:00.822Z,2.80
2023-05-01T08:47:29.368Z,2.87
2023-05-01T08:49:57.877Z,2.77
2023-05-01T08:52:27.301Z,2.67
2023-05-01T08:54:56.996Z,2.50
2023-05-01T08:57:25.415Z,3.23
2023-05-01T08:59:55.172Z,2.73
2023-05-01T09:02:24.276Z,3.07
2023-05-01T09:04:52.429Z,2.23
2023-05-01T09:07:20.377Z,2.63
2023-05-01T09:09:48.261Z,2.40
2023-05-01T09:12:19.789Z,2.60
2023-05-01T09:14:47.795Z,2.63
2023-05-01T09:17:17.167Z,2.87
2023-05-01T09:19:45.433Z,2.30
2023-05-01T09:22:13.356Z,2.33
2023-05-01T09:24:41.239Z,2.40
2023-05-01T09:27:09.449Z,2.20
2023-05-01T09:29:41.245Z,1.80
2023-05-01T09:32:17.141Z,2.30
2023-05-01T09:34:45.389Z,2.20
2023-05-01T09:37:28.774Z,2.23
2023-05-01T09:40:06.021Z,2.83
2023-05-01T09:42:34.576Z,2.40
2023-05-01T09:45:03.746Z,2.23
2023-05-01T09:47:34.375Z,2.33
2023-05-01T09:50:02.400Z,2.20
2023-05-01T09:52:30.403Z,1.77
2023-05-01T09:55:13.174Z,2.07
2023-05-01T09:57:43.008Z,2.07
2023-05-01T10:00:12.476Z,2.20
2023-05-01T10:02:42.146Z,2.10
2023-05-01T10:05:10.834Z,2.20
2023-05-01T10:07:39.456Z,2.10
2023-05-01T10:10:19.754Z,1.80
2023-05-01T10:12:47.846Z,2.00
2023-05-01T10:15:24.492Z,1.87
2023-05-01T10:17:55.749Z,1.90
2023-05-01T10:20:24.105Z,2.07
2023-05-01T10:22:52.166Z,1.93
2023-05-01T10:25:21.283Z,1.90
2023-05-01T10:27:49.855Z,2.60
2023-05-01T10:30:18.545Z,1.93
2023-05-01T10:32:47.437Z,2.10
2023-05-01T10:35:20.517Z,2.00
2023-05-01T10:37:49.281Z,2.10
2023-05-01T10:40:35.671Z,2.00
2023-05-01T10:43:21.068Z,1.87
2023-05-01T10:45:49.847Z,1.97
2023-05-01T10:48:50.907Z,2.30
2023-05-01T10:51:20.828Z,1.80
2023-05-01T10:53:49.187Z,1.90
2023-05-01T10:56:35.949Z,2.10
2023-05-01T10:59:04.940Z,2.43
2023-05-01T11:01:34.227Z,1.67
2023-05-01T11:04:04.263Z,2.10
2023-05-01T11:06:34.076Z,2.10
2023-05-01T11:09:02.642Z,2.10
2023-05-01T11:11:52.348Z,1.83
2023-05-01T11:14:20.271Z,1.67
2023-05-01T11:16:49.239Z,1.60
2023-05-01T11:19:35.793Z,1.67
2023-05-01T11:22:13.214Z,1.80
2023-05-01T11:24:41.201Z,1.70
2023-05-01T11:27:09.623Z,2.33
2023-05-01T11:29:38.331Z,1.80
2023-05-01T11:32:07.247Z,1.83
2023-05-01T11:34:37.751Z,2.00
2023-05-01T11:37:07.108Z,2.10
2023-05-01T11:39:35.031Z,1.97
2023-05-01T11:42:09.367Z,12.27
2023-05-01T11:44:39.158Z,2.27
2023-05-01T11:47:09.182Z,2.27
2023-05-01T11:49:37.159Z,2.23
2023-05-01T11:52:08.091Z,2.47
2023-05-01T11:54:48.326Z,2.30
2023-05-01T11:57:16.276Z,2.37
2023-05-01T11:59:48.122Z,2.60
2023-05-01T12:02:19.919Z,2.90
2023-05-01T12:04:48.026Z,3.03
2023-05-01T12:07:23.978Z,3.03
2023-05-01T12:09:52.604Z,2.47
2023-05-01T12:12:22.322Z,2.93
2023-05-01T12:14:50.607Z,2.73
2023-05-01T12:17:18.718Z,2.73
2023-05-01T12:19:52.376Z,7.87
2023-05-01T12:22:20.520Z,7.27
2023-05-01T12:24:54.227Z,4.83
2023-05-01T12:27:22.497Z,4.83
2023-05-01T12:29:50.762Z,4.60
2023-05-01T12:32:18.759Z,4.10
2023-05-01T12:34:46.960Z,3.20
2023-05-01T12:37:14.912Z,2.77
2023-05-01T12:39:44.965Z,2.97
2023-05-01T12:42:14.970Z,3.23
2023-05-01T12:44:44.159Z,2.67
2023-05-01T12:47:13.680Z,2.87
2023-05-01T12:49:41.882Z,2.60
2023-05-01T12:52:10.100Z,3.10
2023-05-01T12:54:39.057Z,2.70
2023-05-01T12:57:08.111Z,3.37
2023-05-01T12:59:38.662Z,2.50
2023-05-01T13:02:07.355Z,2.30
2023-05-01T13:04:35.605Z,3.30
2023-05-01T13:07:04.056Z,2.50
2023-05-01T13:09:32.485Z,3.77
2023-05-01T13:12:02.766Z,2.53
2023-05-01T13:14:30.989Z,2.30
2023-05-01T13:17:00.310Z,2.60
2023-05-01T13:19:29.140Z,2.30
2023-05-01T13:21:57.777Z,2.43
2023-05-01T13:24:26.094Z,2.50
2023-05-01T13:27:05.175Z,2.77
2023-05-01T13:29:33.740Z,2.63
2023-05-01T13:32:04.884Z,2.67
2023-05-01T13:34:33.817Z,2.43
2023-05-01T13:37:02.722Z,2.43
2023-05-01T13:39:30.916Z,2.50
2023-05-01T13:41:58.810Z,2.67
2023-05-01T13:44:28.418Z,2.50
2023-05-01T13:46:56.436Z,3.00
2023-05-01T13:49:26.461Z,2.63
2023-05-01T13:51:55.627Z,2.70
2023-05-01T13:54:23.728Z,3.00
2023-05-01T13:56:52.629Z,2.33
2023-05-01T13:59:20.729Z,2.57
2023-05-01T14:01:48.967Z,2.50
2023-05-01T14:04:18.320Z,2.43
2023-05-01T14:06:48.878Z,2.17
2023-05-01T14:09:18.582Z,2.53
2023-05-01T14:11:47.873Z,2.60
2023-05-01T14:14:16.571Z,2.43
2023-05-01T14:16:47.837Z,2.80
2023-05-01T14:19:16.326Z,2.60
2023-05-01T14:21:44.479Z,2.30
2023-05-01T14:24:14.626Z,2.50
2023-05-01T14:26:44.459Z,2.73
2023-05-01T14:29:18.433Z,2.17
2023-05-01T14:31:46.719Z,2.90
2023-05-01T14:34:16.751Z,2.13
2023-05-01T14:36:44.643Z,2.13
2023-05-01T14:39:15.954Z,1.97
2023-05-01T14:41:44.096Z,2.07
2023-05-01T14:44:16.528Z,1.80
2023-05-01T14:46:46.772Z,2.40
2023-05-01T14:49:18.658Z,2.70
2023-05-01T14:51:46.856Z,1.53
2023-05-01T14:54:16.487Z,1.90
2023-05-01T14:56:44.816Z,1.83
2023-05-01T14:59:12.757Z,1.97
2023-05-01T15:01:40.885Z,2.20
2023-05-01T15:04:11.040Z,2.00
2023-05-01T15:06:39.264Z,2.20
2023-05-01T15:09:07.236Z,2.03
2023-05-01T15:11:36.596Z,2.27
2023-05-01T15:14:07.507Z,1.80
2023-05-01T15:16:35.610Z,1.73
2023-05-01T15:19:03.529Z,1.70
2023-05-01T15:21:31.852Z,1.80
2023-05-01T15:23:59.829Z,2.10
2023-05-01T15:26:27.690Z,1.83
2023-05-01T15:28:56.971Z,2.40
2023-05-01T15:31:24.956Z,2.23
2023-05-01T15:33:52.870Z,2.20
2023-05-01T15:36:20.812Z,2.20
2023-05-01T15:38:48.726Z,2.40
2023-05-01T15:41:18.903Z,2.20
2023-05-01T15:43:47.193Z,2.00
2023-05-01T15:46:16.682Z,2.40
2023-05-01T15:48:44.587Z,2.47
2023-05-01T15:51:12.536Z,1.93
2023-05-01T15:53:40.471Z,2.17
2023-05-01T15:56:09.974Z,2.27
2023-05-01T15:58:37.835Z,2.30
2023-05-01T16:01:05.809Z,2.03
2023-05-01T16:03:35.371Z,1.83
2023-05-01T16:06:04.912Z,1.80
2023-05-01T16:08:33.586Z,2.17
2023-05-01T16:11:01.518Z,2.17
2023-05-01T16:13:29.472Z,1.50
2023-05-01T16:15:57.451Z,1.27
2023-05-01T16:18:26.072Z,1.47
2023-05-01T16:20:56.797Z,1.50
2023-05-01T16:23:26.271Z,1.90
2023-05-01T16:25:54.178Z,2.00
2023-05-01T16:28:22.209Z,1.60
2023-05-01T16:30:50.155Z,1.77
2023-05-01T16:33:19.169Z,1.90
2023-05-01T16:35:48.146Z,1.60
2023-05-01T16:38:17.558Z,1.97
2023-05-01T16:40:46.092Z,2.00
2023-05-01T16:43:14.189Z,1.87
2023-05-01T16:45:42.121Z,1.67
2023-05-01T16:48:10.181Z,2.80
2023-05-01T16:50:39.894Z,2.47
2023-05-01T16:53:08.109Z,2.20
2023-05-01T16:55:37.449Z,2.17
2023-05-01T16:58:05.317Z,2.50
2023-05-01T17:00:33.212Z,2.07
2023-05-01T17:03:02.357Z,2.00
2023-05-01T17:05:30.264Z,2.13
2023-05-01T17:07:58.202Z,2.00
2023-05-01T17:10:26.105Z,1.90
2023-05-01T17:12:55.377Z,3.60
2023-05-01T17:15:23.246Z,1.70
2023-05-01T17:17:51.260Z,2.00
2023-05-01T17:20:19.139Z,2.27
2023-05-01T17:22:47.069Z,2.10
2023-05-01T17:25:15.258Z,1.90
2023-05-01T17:27:43.127Z,2.30
2023-05-01T17:30:12.810Z,2.10
2023-05-01T17:32:41.059Z,2.20
2023-05-01T17:35:09.485Z,2.17
2023-05-01T17:37:39.867Z,1.77
2023-05-01T17:40:08.959Z,1.97
2023-05-01T17:42:37.548Z,2.30
2023-05-01T17:45:07.717Z,1.83
2023-05-01T17:47:37.132Z,2.20
2023-05-01T17:50:05.952Z,2.07
2023-05-01T17:52:33.877Z,2.13
2023-05-01T17:55:01.760Z,2.20
2023-05-01T17:57:29.675Z,2.10
2023-05-01T17:59:58.345Z,1.97
2023-05-01T18:02:26.906Z,1.83
2023-05-01T18:04:56.545Z,1.80
2023-05-01T18:07:24.754Z,6.30
2023-05-01T18:09:52.611Z,4.63
2023-05-01T18:12:20.644Z,2.40
2023-05-01T18:14:48.478Z,2.23
2023-05-01T18:17:16.800Z,2.30
2023-05-01T18:19:44.941Z,2.33
2023-05-01T18:22:14.280Z,2.03
2023-05-01T18:24:42.612Z,2.17
2023-05-01T18:27:10.756Z,2.00
2023-05-01T18:29:38.680Z,1.80
2023-05-01T18:32:07.080Z,2.33
2023-05-01T18:34:35.223Z,2.37
2023-05-01T18:37:03.179Z,2.20
2023-05-01T18:39:32.497Z,2.13
2023-05-01T18:42:00.417Z,2.30
2023-05-01T18:44:28.374Z,2.37
2023-05-01T18:46:56.387Z,2.30
2023-05-01T18:49:25.133Z,1.97
2023-05-01T18:51:53.148Z,2.30
2023-05-01T18:54:21.073Z,2.50
2023-05-01T18:56:50.555Z,4.10
2023-05-01T18:59:18.514Z,2.77
2023-05-01T19:01:46.491Z,2.47
2023-05-01T19:04:14.431Z,3.13
2023-05-01T19:06:42.431Z,2.60
2023-05-01T19:09:11.153Z,2.20
2023-05-01T19:11:39.042Z,2.10
2023-05-01T19:14:08.325Z,2.40
2023-05-01T19:16:36.252Z,2.63
2023-05-01T19:19:04.453Z,2.70
2023-05-01T19:21:32.493Z,2.90
2023-05-01T19:24:00.401Z,3.10
2023-05-01T19:26:29.411Z,2.63
2023-05-01T19:28:57.344Z,3.27
2023-05-01T19:31:26.714Z,2.77
2023-05-01T19:33:55.334Z,3.10
2023-05-01T19:36:23.366Z,3.00
2023-05-01T19:38:53.408Z,3.33
2023-05-01T19:41:21.841Z,2.50
2023-05-01T19:43:49.726Z,2.53
2023-05-01T19:46:17.896Z,3.30
2023-05-01T19:48:47.251Z,2.93
2023-05-01T19:51:15.188Z,2.23
2023-05-01T19:53:43.344Z,2.70
2023-05-01T19:56:11.589Z,2.70
2023-05-01T19:58:40.183Z,2.50
2023-05-01T20:01:09.436Z,2.10
2023-05-01T20:03:37.386Z,2.10
2023-05-01T20:06:07.654Z,2.63
2023-05-01T20:08:35.695Z,2.77
2023-05-01T20:11:03.620Z,2.90
2023-05-01T20:13:31.603Z,2.53
2023-05-01T20:15:59.598Z,2.43
2023-05-01T20:18:27.483Z,2.90
2023-05-01T20:20:55.433Z,2.30
2023-05-01T20:23:24.833Z,2.47
2023-05-01T20:25:53.562Z,1.97
2023-05-01T20:28:22.026Z,1.97
2023-05-01T20:30:50.061Z,2.10
2023-05-01T20:33:18.191Z,2.40
2023-05-01T20:35:46.401Z,2.10
2023-05-01T20:38:14.413Z,2.10
2023-05-01T20:40:43.775Z,2.00
2023-05-01T20:43:11.684Z,1.80
2023-05-01T20:45:39.576Z,1.90
2023-05-01T20:48:07.608Z,1.80
2023-05-01T20:50:36.062Z,1.50
2023-05-01T20:53:04.114Z,1.50
2023-05-01T20:55:32.007Z,1.70
2023-05-01T20:58:01.362Z,1.87
2023-05-01T21:00:29.211Z,1.70
2023-05-01T21:02:59.017Z,1.70
2023-05-01T21:05:26.988Z,1.70
2023-05-01T21:07:54.929Z,1.83
2023-05-01T21:10:22.768Z,1.50
2023-05-01T21:12:51.270Z,1.60
2023-05-01T21:15:20.779Z,1.50
2023-05-01T21:17:48.774Z,1.43
2023-05-01T21:20:17.681Z,1.47
2023-05-01T21:22:48.201Z,1.70
2023-05-01T21:25:16.938Z,1.50
2023-05-01T21:27:44.805Z,1.50
2023-05-01T21:30:15.620Z,1.40
2023-05-01T21:32:45.034Z,1.40
2023-05-01T21:35:17.260Z,1.50
2023-05-01T21:37:46.611Z,1.70
2023-05-01T21:40:15.109Z,1.30
2023-05-01T21:42:43.131Z,1.70
2023-05-01T21:45:12.800Z,1.83
2023-05-01T21:47:41.406Z,1.30
2023-05-01T21:50:13.035Z,1.70
2023-05-01T21:52:41.140Z,1.60
2023-05-01T21:55:09.788Z,1.27
2023-05-01T21:57:37.984Z,1.73
2023-05-01T22:00:09.103Z,1.50
2023-05-01T22:02:38.656Z,1.40
2023-05-01T22:05:06.866Z,1.43
2023-05-01T22:07:36.217Z,1.67
2023-05-01T22:10:04.224Z,1.70
2023-05-01T22:12:32.179Z,2.23
2023-05-01T22:15:00.036Z,1.60
2023-05-01T22:17:30.929Z,1.93
2023-05-01T22:19:59.259Z,1.60
2023-05-01T22:22:27.345Z,1.73
2023-05-01T22:24:56.702Z,1.80
2023-05-01T22:27:24.645Z,1.80
2023-05-01T22:29:52.524Z,1.60
2023-05-01T22:32:21.073Z,2.00
2023-05-01T22:34:49.250Z,1.77
2023-05-01T22:37:17.461Z,2.00
2023-05-01T22:39:45.385Z,1.87
2023-05-01T22:42:14.708Z,1.87
2023-05-01T22:44:42.557Z,1.93
2023-05-01T22:47:10.555Z,2.20
2023-05-01T22:49:38.462Z,1.83
2023-05-01T22:52:06.621Z,1.60
2023-05-01T22:54:34.546Z,1.40
2023-05-01T22:57:02.727Z,1.70
2023-05-01T22:59:32.061Z,1.97
2023-05-01T23:02:02.683Z,1.57
2023-05-01T23:04:30.847Z,1.60
2023-05-01T23:06:58.888Z,1.90
2023-05-01T23:09:26.815Z,2.43
2023-05-01T23:11:54.716Z,2.53
2023-05-01T23:14:22.688Z,3.07
2023-05-01T23:16:52.149Z,5.20
2023-05-01T23:19:21.495Z,5.10
2023-05-01T23:21:49.824Z,7.00
2023-05-01T23:24:18.986Z,5.93
2023-05-01T23:26:46.944Z,6.60
2023-05-01T23:29:16.215Z,7.30
2023-05-01T23:31:44.904Z,7.93
2023-05-01T23:34:17.642Z,7.63
2023-05-01T23:36:46.356Z,6.33
2023-05-01T23:39:14.367Z,5.97
2023-05-01T23:41:42.424Z,3.73
2023-05-01T23:44:10.700Z,3.37
2023-05-01T23:46:39.015Z,3.37
2023-05-01T23:49:07.014Z,2.57
2023-05-01T23:51:36.488Z,1.93
2023-05-01T23:54:04.660Z,2.20
2023-05-01T23:56:32.856Z,2.00
2023-05-01T23:59:00.791Z,1.87
